Time;durP1;ratioP1;P1;durP2;ratioP2;P2;SDS_P1;SDS_P2;PMS_P1;PMS_P2;Temp;Humidity;BMP_temperature;BMP_pressure;BME280_temperature;BME280_humidity;BME280_pressure;Samples;Min_cycle;Max_cycle;Signal;HPM_P1;HPM_P2
2024/02/25 00:00:42;;;;;;;;;;;;;;;26.19;38.17;93274.47;5053436;28;9055;-56
2024/02/25 00:03:16;;;;;;;;;;;;;;;26.19;37.62;93274.47;5055833;28;7022;-56
2024/02/25 00:05:53;;;;;;;;;;;;;;;26.20;37.77;93268.38;5055181;28;9827;-56
2024/02/25 00:08:35;;;;;;;;;;;;;;;26.19;38.02;93268.94;5074611;28;6904;-55
2024/02/25 00:11:02;;;;;;;;;;;;;;;26.19;37.70;93268.94;5058799;28;7216;-56
2024/02/25 00:13:29;;;;;;;;;;;;;;;26.20;37.45;93264.91;5060204;28;7279;-55
2024/02/25 00:15:55;;;;;;;;;;;;;;;26.19;37.45;93268.94;5071836;28;9143;-56
2024/02/25 00:18:32;;;;;;;;;;;;;;;26.21;37.26;93263.63;5071987;28;7056;-55
2024/02/25 00:21:05;;;;;;;;;;;;;;;26.19;37.67;93255.88;5056273;28;7389;-56
2024/02/25 00:24:22;;;;;;;;;;;;;;;26.20;37.35;93249.09;5054474;28;7024;-56
2024/02/25 00:27:18;;;;;;;;;;;;;;;26.19;37.87;93257.91;5027511;28;7329;-56
2024/02/25 00:29:44;;;;;;;;;;;;;;;26.20;37.02;93265.63;5013704;28;9556;-55
2024/02/25 00:32:10;;;;;;;;;;;;;;;26.19;37.48;93252.41;5000521;28;7259;-55
2024/02/25 00:34:35;;;;;;;;;;;;;;;26.14;38.00;93252.00;5013556;28;8961;-56
2024/02/25 00:37:01;;;;;;;;;;;;;;;26.19;37.56;93257.91;5012792;28;8517;-56
2024/02/25 00:39:29;;;;;;;;;;;;;;;26.20;37.30;93262.13;5021595;28;7365;-55
2024/02/25 00:41:57;;;;;;;;;;;;;;;26.17;37.44;93253.66;5013489;28;7217;-56
2024/02/25 00:44:48;;;;;;;;;;;;;;;26.19;37.67;93253.13;5021445;28;7444;-55
2024/02/25 00:47:15;;;;;;;;;;;;;;;26.20;37.31;93251.13;4996740;28;7238;-56
2024/02/25 00:49:42;;;;;;;;;;;;;;;26.17;37.64;93256.44;5012233;28;7292;-56
2024/02/25 00:52:21;;;;;;;;;;;;;;;26.19;37.26;93255.16;5016745;28;7197;-56
2024/02/25 00:54:48;;;;;;;;;;;;;;;26.19;37.65;93253.13;5008417;28;6995;-55
2024/02/25 00:57:14;;;;;;;;;;;;;;;26.19;37.42;93264.16;5020153;28;8706;-56
2024/02/25 00:59:42;;;;;;;;;;;;;;;26.17;37.81;93264.69;5012768;28;9074;-55
2024/02/25 01:02:15;;;;;;;;;;;;;;;26.19;37.21;93264.16;5028917;28;7229;-55
2024/02/25 01:04:42;;;;;;;;;;;;;;;26.18;37.79;93273.72;5082337;28;7450;-56
2024/02/25 01:07:10;;;;;;;;;;;;;;;26.17;37.35;93261.94;5072781;28;7040;-55
2024/02/25 01:09:38;;;;;;;;;;;;;;;26.19;37.88;93268.94;5053403;28;7145;-56
2024/02/25 01:12:33;;;;;;;;;;;;;;;26.19;37.12;93263.44;5053574;28;8616;-56
2024/02/25 01:15:31;;;;;;;;;;;;;;;26.16;37.56;93265.97;5034171;28;9026;-55
2024/02/25 01:18:08;;;;;;;;;;;;;;;26.16;37.88;93265.97;4992901;28;9362;-56
2024/02/25 01:20:52;;;;;;;;;;;;;;;26.16;37.36;93254.22;4977041;28;7119;-56
2024/02/25 01:23:35;;;;;;;;;;;;;;;26.16;37.53;93254.22;5012827;28;9186;-55
2024/02/25 01:26:00;;;;;;;;;;;;;;;26.14;37.49;93259.53;4996066;28;7069;-56
2024/02/25 01:28:26;;;;;;;;;;;;;;;26.14;37.44;93254.75;4991502;28;9411;-56
2024/02/25 01:30:52;;;;;;;;;;;;;;;26.13;37.59;93258.78;4979922;28;7220;-56
2024/02/25 01:33:21;;;;;;;;;;;;;;;26.14;37.38;93252.00;4995552;28;9503;-56
2024/02/25 01:35:49;;;;;;;;;;;;;;;26.15;37.58;93247.22;4992388;28;7051;-56
2024/02/25 01:38:17;;;;;;;;;;;;;;;26.14;37.16;93249.22;4975723;28;9127;-56
2024/02/25 01:40:43;;;;;;;;;;;;;;;26.15;37.47;93247.97;4976610;28;7021;-55
2024/02/25 01:43:20;;;;;;;;;;;;;;;26.13;37.53;93247.03;4976723;28;8495;-56
2024/02/25 01:45:47;;;;;;;;;;;;;;;26.14;36.97;93251.28;5011289;28;7194;-56
2024/02/25 01:48:20;;;;;;;;;;;;;;;26.13;37.08;93241.50;4995159;28;7903;-56
2024/02/25 01:50:49;;;;;;;;;;;;;;;26.15;37.35;93238.94;4987751;28;9079;-56
2024/02/25 01:53:16;;;;;;;;;;;;;;;26.13;37.04;93231.22;5016594;28;9099;-56
2024/02/25 01:55:50;;;;;;;;;;;;;;;26.12;37.67;93231.78;5070770;28;7265;-56
2024/02/25 01:58:19;;;;;;;;;;;;;;;26.12;37.37;93227.00;5067576;28;7262;-56
2024/02/25 02:00:45;;;;;;;;;;;;;;;26.13;37.62;93222.97;5067221;28;7012;-56
2024/02/25 02:03:11;;;;;;;;;;;;;;;26.10;37.44;93221.28;5061891;28;7108;-56
2024/02/25 02:05:37;;;;;;;;;;;;;;;26.12;37.57;93220.75;5069819;28;7446;-56
2024/02/25 02:08:06;;;;;;;;;;;;;;;26.15;36.78;93216.91;5075588;28;7028;-56
2024/02/25 02:10:32;;;;;;;;;;;;;;;26.16;37.29;93216.34;5055276;28;6910;-56
2024/02/25 02:13:01;;;;;;;;;;;;;;;26.11;37.02;93209.00;5074836;28;8774;-39
2024/02/25 02:15:27;;;;;;;;;;;;;;;26.11;37.10;93209.00;5065124;28;7018;-37
2024/02/25 02:17:54;;;;;;;;;;;;;;;26.12;37.14;93204.94;5067477;28;7055;-37
2024/02/25 02:20:21;;;;;;;;;;;;;;;26.12;37.43;93202.19;5086276;28;9006;-37
2024/02/25 02:22:48;;;;;;;;;;;;;;;26.12;37.18;93213.22;5070501;28;7276;-37
2024/02/25 02:25:16;;;;;;;;;;;;;;;26.13;37.00;93213.97;5064708;28;7757;-37
2024/02/25 02:27:48;;;;;;;;;;;;;;;26.12;37.21;93207.69;5063666;28;7265;-38
2024/02/25 02:30:15;;;;;;;;;;;;;;;26.11;37.50;93203.47;5069101;28;8834;-37
2024/02/25 02:32:41;;;;;;;;;;;;;;;26.11;37.13;93188.97;5052307;28;9647;-37
2024/02/25 02:35:29;;;;;;;;;;;;;;;26.10;37.40;93196.47;5035553;28;10088;-38
2024/02/25 02:37:57;;;;;;;;;;;;;;;26.12;37.49;93185.66;5069449;28;7085;-37
2024/02/25 02:40:27;;;;;;;;;;;;;;;26.13;36.93;93178.88;5057375;28;7108;-37
2024/02/25 02:42:58;;;;;;;;;;;;;;;26.12;36.89;93177.38;5061669;28;7026;-37
2024/02/25 02:45:24;;;;;;;;;;;;;;;26.13;36.65;93178.13;5072371;28;8689;-37
2024/02/25 02:47:51;;;;;;;;;;;;;;;26.09;36.93;93177.75;5059188;28;7203;-37
2024/02/25 02:50:17;;;;;;;;;;;;;;;26.12;37.19;93187.69;5075619;28;7708;-37
2024/02/25 02:52:43;;;;;;;;;;;;;;;26.10;37.11;93188.22;5069611;28;7269;-38
2024/02/25 02:55:11;;;;;;;;;;;;;;;26.11;36.90;93186.94;5088981;28;7166;-37
2024/02/25 02:57:37;;;;;;;;;;;;;;;26.12;36.90;93193.22;5093162;28;7115;-37
2024/02/25 03:00:04;;;;;;;;;;;;;;;26.15;36.97;93189.34;5076982;28;7303;-37
2024/02/25 03:02:33;;;;;;;;;;;;;;;26.11;37.50;93186.22;5072577;28;7282;-37
2024/02/25 03:04:59;;;;;;;;;;;;;;;26.13;36.98;93184.38;5080121;28;9102;-37
2024/02/25 03:07:31;;;;;;;;;;;;;;;26.11;36.95;93186.94;5092965;28;7647;-38
2024/02/25 03:10:06;;;;;;;;;;;;;;;26.11;37.20;93172.44;5086459;28;7019;-38
2024/02/25 03:12:43;;;;;;;;;;;;;;;26.10;36.96;93174.44;5072628;28;9178;-37
2024/02/25 03:15:14;;;;;;;;;;;;;;;26.10;37.30;93165.44;5074775;28;9255;-38
2024/02/25 03:17:40;;;;;;;;;;;;;;;26.08;37.56;93170.72;5070897;28;7037;-37
2024/02/25 03:20:09;;;;;;;;;;;;;;;26.08;36.81;93171.50;5085196;28;7047;-38
2024/02/25 03:23:25;;;;;;;;;;;;;;;26.10;36.83;93177.19;5076233;28;9325;-38
2024/02/25 03:25:58;;;;;;;;;;;;;;;26.10;36.65;93174.44;5073814;28;7408;-36
2024/02/25 03:28:25;;;;;;;;;;;;;;;26.09;37.08;93170.22;5072371;28;9135;-36
2024/02/25 03:30:59;;;;;;;;;;;;;;;26.08;37.08;93165.97;5065049;28;7355;-37
2024/02/25 03:33:35;;;;;;;;;;;;;;;26.06;37.21;93173.28;5076436;28;8210;-36
2024/02/25 03:36:27;;;;;;;;;;;;;;;26.09;37.23;93172.22;5075479;28;9106;-37
2024/02/25 03:39:15;;;;;;;;;;;;;;;26.07;37.55;93158.97;5034497;28;8726;-36
2024/02/25 03:42:05;;;;;;;;;;;;;;;26.10;37.38;93162.66;5014856;28;7160;-36
2024/02/25 03:44:31;;;;;;;;;;;;;;;26.06;36.82;93154.75;5004251;28;7848;-36
2024/02/25 03:46:58;;;;;;;;;;;;;;;26.08;37.13;93171.50;5014581;28;8117;-36
2024/02/25 03:49:28;;;;;;;;;;;;;;;26.08;36.62;93168.72;5015516;28;9145;-36
2024/02/25 03:51:57;;;;;;;;;;;;;;;26.08;36.77;93163.22;5012999;28;8011;-36
2024/02/25 03:54:35;;;;;;;;;;;;;;;26.07;37.33;93153.47;5014293;28;7065;-36
2024/02/25 03:57:02;;;;;;;;;;;;;;;26.10;36.60;93159.91;5033398;28;9955;-37
2024/02/25 03:59:30;;;;;;;;;;;;;;;26.08;36.75;93159.69;5001109;28;7383;-36
2024/02/25 04:02:22;;;;;;;;;;;;;;;26.08;36.54;93152.19;5030065;28;9082;-36
2024/02/25 04:04:58;;;;;;;;;;;;;;;26.07;37.34;93156.22;5017702;28;7147;-36
2024/02/25 04:07:44;;;;;;;;;;;;;;;26.08;37.01;93152.19;5007491;28;7038;-36
2024/02/25 04:10:45;;;;;;;;;;;;;;;26.07;37.18;93158.97;5017470;28;7119;-36
2024/02/25 04:13:14;;;;;;;;;;;;;;;26.06;36.55;93168.50;5017394;28;9043;-37
2024/02/25 04:15:39;;;;;;;;;;;;;;;26.04;36.61;93168.31;5038774;28;9178;-36
2024/02/25 04:18:06;;;;;;;;;;;;;;;26.04;36.79;93167.56;5075537;28;9186;-36
2024/02/25 04:20:35;;;;;;;;;;;;;;;26.05;37.53;93155.28;5068965;28;7854;-36
2024/02/25 04:23:05;;;;;;;;;;;;;;;26.06;36.83;93156.75;5071806;28;7283;-36
2024/02/25 04:26:06;;;;;;;;;;;;;;;26.06;36.93;93154.00;5083902;28;6938;-36
2024/02/25 04:28:36;;;;;;;;;;;;;;;26.02;36.79;93154.34;5054554;28;7338;-37
2024/02/25 04:31:03;;;;;;;;;;;;;;;26.05;37.22;93155.28;5059127;28;8757;-36
2024/02/25 04:33:31;;;;;;;;;;;;;;;26.01;36.87;93154.91;5065720;28;7229;-36
2024/02/25 04:35:58;;;;;;;;;;;;;;;26.05;37.41;93161.53;5074110;28;9148;-36
2024/02/25 04:38:26;;;;;;;;;;;;;;;26.05;37.64;93167.06;5068801;28;7102;-36
2024/02/25 04:40:53;;;;;;;;;;;;;;;26.05;37.15;93166.31;5067351;28;9078;-36
2024/02/25 04:43:19;;;;;;;;;;;;;;;26.00;36.85;93164.44;5073789;28;9120;-36
2024/02/25 04:46:05;;;;;;;;;;;;;;;26.02;36.75;93168.13;5021348;28;7348;-36
2024/02/25 04:48:32;;;;;;;;;;;;;;;26.03;37.05;93166.13;5072483;28;7198;-36
2024/02/25 04:51:38;;;;;;;;;;;;;;;26.03;37.60;93161.31;5060166;28;7040;-36
2024/02/25 04:54:19;;;;;;;;;;;;;;;26.02;37.25;93162.63;5070188;28;7314;-36
2024/02/25 04:56:46;;;;;;;;;;;;;;;26.02;36.84;93165.38;5086816;28;9141;-36
2024/02/25 04:59:14;;;;;;;;;;;;;;;26.01;37.36;93161.13;5053712;28;9800;-36
2024/02/25 05:01:50;;;;;;;;;;;;;;;25.97;37.23;93154.50;5057723;28;7582;-36
2024/02/25 05:04:17;;;;;;;;;;;;;;;25.93;36.71;93149.34;5069754;28;7845;-36
2024/02/25 05:07:07;;;;;;;;;;;;;;;25.92;37.40;93155.41;5057187;28;7005;-36
2024/02/25 05:09:43;;;;;;;;;;;;;;;25.87;37.63;93146.00;5072681;28;9376;-36
2024/02/25 05:12:22;;;;;;;;;;;;;;;25.93;37.35;93152.09;5074458;28;7380;-36
2024/02/25 05:14:49;;;;;;;;;;;;;;;25.97;37.46;93160.00;5073309;28;9384;-36
2024/02/25 05:17:22;;;;;;;;;;;;;;;25.97;37.29;93155.22;5078034;28;9063;-36
2024/02/25 05:19:48;;;;;;;;;;;;;;;25.99;37.51;93163.69;5070558;28;7258;-36
2024/02/25 05:22:15;;;;;;;;;;;;;;;25.97;37.42;93158.00;5087624;28;7028;-36
2024/02/25 05:24:44;;;;;;;;;;;;;;;26.01;37.20;93163.16;5074798;28;9426;-36
2024/02/25 05:27:15;;;;;;;;;;;;;;;26.00;37.70;93167.94;5072838;28;8934;-36
2024/02/25 05:30:18;;;;;;;;;;;;;;;25.95;37.46;93163.31;5054517;28;8811;-36
2024/02/25 05:32:44;;;;;;;;;;;;;;;25.90;37.17;93166.94;4996485;28;7228;-36
2024/02/25 05:35:45;;;;;;;;;;;;;;;25.87;37.50;93162.53;5012426;28;7026;-36
2024/02/25 05:38:11;;;;;;;;;;;;;;;25.81;37.07;93152.94;4973485;28;7176;-36
2024/02/25 05:40:57;;;;;;;;;;;;;;;25.82;37.66;93157.91;4992549;28;8109;-36
2024/02/25 05:43:47;;;;;;;;;;;;;;;25.81;37.00;93159.19;4976715;28;7034;-36
2024/02/25 05:46:32;;;;;;;;;;;;;;;25.79;37.48;93155.50;4976669;28;9297;-36
2024/02/25 05:49:15;;;;;;;;;;;;;;;25.78;38.01;93156.78;4993144;28;7052;-36
2024/02/25 05:51:44;;;;;;;;;;;;;;;25.77;37.89;93156.06;4975727;28;9186;-36
2024/02/25 05:54:12;;;;;;;;;;;;;;;25.75;37.55;93152.38;4971791;28;9272;-37
2024/02/25 05:56:38;;;;;;;;;;;;;;;25.75;38.00;93155.84;4977607;28;7322;-36
2024/02/25 05:59:07;;;;;;;;;;;;;;;25.74;37.82;93143.34;4976129;28;7064;-36
2024/02/25 06:02:01;;;;;;;;;;;;;;;25.74;37.29;93148.88;4976420;28;9371;-38
2024/02/25 06:04:29;;;;;;;;;;;;;;;25.73;37.32;93161.16;4990508;28;7017;-37
2024/02/25 06:06:55;;;;;;;;;;;;;;;25.71;38.00;93155.44;5010762;28;7118;-37
2024/02/25 06:09:23;;;;;;;;;;;;;;;25.70;38.15;93156.75;5019591;28;7226;-38
2024/02/25 06:11:49;;;;;;;;;;;;;;;25.72;37.81;93167.19;5039648;28;7118;-38
2024/02/25 06:14:17;;;;;;;;;;;;;;;25.70;37.22;93165.00;5052958;28;6971;-37
2024/02/25 06:17:03;;;;;;;;;;;;;;;25.68;37.83;93166.81;5066862;28;10064;-38
2024/02/25 06:19:33;;;;;;;;;;;;;;;25.70;37.49;93167.75;5072910;28;9374;-37
2024/02/25 06:22:10;;;;;;;;;;;;;;;25.71;37.76;93160.94;5076770;28;6989;-37
2024/02/25 06:24:48;;;;;;;;;;;;;;;25.70;37.38;93162.25;5086200;28;7811;-37
2024/02/25 06:27:15;;;;;;;;;;;;;;;25.71;38.14;93166.47;5061754;28;7117;-37
2024/02/25 06:29:47;;;;;;;;;;;;;;;25.71;37.31;93160.94;5064681;28;7345;-37
2024/02/25 06:32:13;;;;;;;;;;;;;;;25.70;37.31;93165.00;5070999;28;9084;-39
2024/02/25 06:34:40;;;;;;;;;;;;;;;25.72;37.14;93169.97;5070334;28;9669;-37
2024/02/25 06:37:05;;;;;;;;;;;;;;;25.69;37.98;93168.28;5061458;28;7640;-37
2024/02/25 06:39:34;;;;;;;;;;;;;;;25.70;37.85;93167.75;5065642;28;8717;-38
2024/02/25 06:42:00;;;;;;;;;;;;;;;25.71;38.22;93176.75;5074437;28;7334;-37
2024/02/25 06:44:26;;;;;;;;;;;;;;;25.69;37.43;93174.53;5087644;28;7039;-37
2024/02/25 06:46:53;;;;;;;;;;;;;;;25.68;37.38;93170.31;5054570;28;7408;-37
2024/02/25 06:49:19;;;;;;;;;;;;;;;25.68;38.14;93184.06;5056181;28;7201;-38
2024/02/25 06:51:47;;;;;;;;;;;;;;;25.66;38.08;93175.63;5057587;28;8303;-38
2024/02/25 06:54:16;;;;;;;;;;;;;;;25.69;37.64;93182.78;5073250;28;7035;-38
2024/02/25 06:56:42;;;;;;;;;;;;;;;25.68;37.52;93191.59;5066667;28;8731;-38
2024/02/25 06:59:08;;;;;;;;;;;;;;;25.69;37.62;93184.78;5063819;28;7031;-38
2024/02/25 07:01:37;;;;;;;;;;;;;;;25.68;38.28;93181.31;5067732;28;6851;-38
2024/02/25 07:04:05;;;;;;;;;;;;;;;25.69;37.58;93190.31;5067444;28;7117;-38
2024/02/25 07:06:31;;;;;;;;;;;;;;;25.69;37.37;93191.03;5066930;28;7317;-37
2024/02/25 07:08:58;;;;;;;;;;;;;;;25.69;37.55;93188.28;5064398;28;7194;-38
2024/02/25 07:11:31;;;;;;;;;;;;;;;25.68;38.13;93183.34;5091699;28;7669;-37
2024/02/25 07:14:05;;;;;;;;;;;;;;;25.70;38.14;93170.50;5063830;28;7113;-56
2024/02/25 07:16:31;;;;;;;;;;;;;;;25.73;37.71;93174.91;5072070;28;8773;-56
2024/02/25 07:19:16;;;;;;;;;;;;;;;25.81;38.15;93175.72;5049250;28;7068;-56
2024/02/25 07:22:02;;;;;;;;;;;;;;;25.87;38.03;93170.06;5079817;28;7238;-56
2024/02/25 07:24:37;;;;;;;;;;;;;;;25.88;37.42;93166.75;5072415;28;8216;-55
2024/02/25 07:27:09;;;;;;;;;;;;;;;25.90;37.49;93163.47;5065401;28;8803;-56
2024/02/25 07:29:47;;;;;;;;;;;;;;;25.88;37.43;93169.50;5085295;28;7283;-56
2024/02/25 07:32:19;;;;;;;;;;;;;;;25.89;37.99;93173.00;5082015;28;7043;-56
2024/02/25 07:34:51;;;;;;;;;;;;;;;25.90;37.99;93166.22;5074153;28;8897;-56
2024/02/25 07:37:21;;;;;;;;;;;;;;;25.89;37.73;93176.50;5069348;28;7101;-56
2024/02/25 07:40:16;;;;;;;;;;;;;;;25.91;37.91;93164.94;5076029;28;7311;-56
2024/02/25 07:42:44;;;;;;;;;;;;;;;25.94;37.54;93172.88;5017486;28;7054;-56
2024/02/25 07:45:10;;;;;;;;;;;;;;;25.95;36.86;93176.34;5013072;28;7224;-56
2024/02/25 07:47:53;;;;;;;;;;;;;;;25.97;37.45;93182.03;5013501;28;7017;-56
2024/02/25 07:50:29;;;;;;;;;;;;;;;25.98;36.81;93180.78;5017626;28;9086;-56
2024/02/25 07:53:03;;;;;;;;;;;;;;;25.93;36.46;93178.91;5000731;28;7046;-56
2024/02/25 07:55:29;;;;;;;;;;;;;;;25.97;36.63;93171.75;5005772;28;7032;-56
2024/02/25 07:57:55;;;;;;;;;;;;;;;25.97;36.66;93168.25;5011965;28;8713;-56
2024/02/25 08:00:21;;;;;;;;;;;;;;;25.97;36.80;93174.53;5003746;28;8746;-56
2024/02/25 08:02:48;;;;;;;;;;;;;;;25.97;36.01;93171.75;5012792;28;7014;-56
2024/02/25 08:05:25;;;;;;;;;;;;;;;25.97;35.09;93171.75;4993604;28;7326;-56
2024/02/25 08:08:01;;;;;;;;;;;;;;;25.95;34.36;93174.31;5008098;28;8888;-56
2024/02/25 08:10:45;;;;;;;;;;;;;;;25.94;34.53;93169.38;5017106;28;7160;-56
2024/02/25 08:13:11;;;;;;;;;;;;;;;25.95;34.68;93163.31;5016185;28;7209;-56
2024/02/25 08:15:39;;;;;;;;;;;;;;;25.94;34.85;93156.34;5002748;28;7243;-56
2024/02/25 08:18:08;;;;;;;;;;;;;;;25.95;34.45;93159.81;5001133;28;7592;-56
2024/02/25 08:20:36;;;;;;;;;;;;;;;25.96;34.06;93153.03;5067264;28;9073;-58
2024/02/25 08:23:04;;;;;;;;;;;;;;;25.96;34.14;93153.78;5071066;28;7302;-39
2024/02/25 08:25:31;;;;;;;;;;;;;;;25.95;33.39;93146.78;5068757;28;7196;-38
2024/02/25 08:27:57;;;;;;;;;;;;;;;25.92;33.96;93147.13;5082689;28;7210;-38
2024/02/25 08:31:02;;;;;;;;;;;;;;;25.93;34.29;93145.84;5072381;28;9295;-38
2024/02/25 08:33:30;;;;;;;;;;;;;;;25.92;33.77;93136.13;5010063;28;8837;-38
2024/02/25 08:36:06;;;;;;;;;;;;;;;25.89;33.85;93140.69;5010279;28;7371;-38
2024/02/25 08:38:33;;;;;;;;;;;;;;;25.86;33.64;93138.28;4998358;28;7093;-38
2024/02/25 08:41:02;;;;;;;;;;;;;;;25.91;34.08;93137.38;5020203;28;7059;-38
2024/02/25 08:43:37;;;;;;;;;;;;;;;25.91;33.64;93140.88;5021030;28;7528;-37
2024/02/25 08:46:42;;;;;;;;;;;;;;;25.91;33.88;93145.66;5029009;28;7371;-37
2024/02/25 08:49:09;;;;;;;;;;;;;;;25.89;33.97;93129.66;5026679;28;9231;-38
2024/02/25 08:51:35;;;;;;;;;;;;;;;25.88;33.92;93139.19;5027209;28;8622;-38
2024/02/25 08:54:10;;;;;;;;;;;;;;;25.83;34.23;93126.34;5013708;28;7042;-37
2024/02/25 08:56:36;;;;;;;;;;;;;;;25.86;34.67;93132.78;5026117;28;7041;-37
2024/02/25 08:59:01;;;;;;;;;;;;;;;25.84;35.24;93135.31;5028751;28;7039;-38
2024/02/25 09:01:37;;;;;;;;;;;;;;;25.87;34.64;93128.72;5014860;28;7245;-37
2024/02/25 09:04:10;;;;;;;;;;;;;;;25.92;35.45;93128.59;5033933;28;9408;-37
2024/02/25 09:06:37;;;;;;;;;;;;;;;25.95;34.88;93127.50;5084695;28;7014;-38
2024/02/25 09:09:10;;;;;;;;;;;;;;;25.99;35.76;93124.41;5070909;28;7014;-38
2024/02/25 09:11:36;;;;;;;;;;;;;;;25.97;35.78;93122.16;5078157;28;7069;-38
2024/02/25 09:14:02;;;;;;;;;;;;;;;26.03;35.40;93116.53;5068408;28;9006;-38
2024/02/25 09:16:28;;;;;;;;;;;;;;;26.03;35.45;93106.22;5065939;28;7025;-37
2024/02/25 09:18:54;;;;;;;;;;;;;;;26.04;35.60;93109.72;5067748;28;9369;-38
2024/02/25 09:21:25;;;;;;;;;;;;;;;26.09;36.14;93108.84;5088861;28;8932;-37
2024/02/25 09:23:53;;;;;;;;;;;;;;;26.08;36.14;93110.88;5067800;28;8784;-37
2024/02/25 09:26:19;;;;;;;;;;;;;;;26.11;36.27;93103.53;5065682;28;8726;-37
2024/02/25 09:28:45;;;;;;;;;;;;;;;26.11;35.59;93103.53;5069813;28;7052;-37
2024/02/25 09:31:19;;;;;;;;;;;;;;;26.13;35.99;93090.69;5072979;28;7017;-37
2024/02/25 09:33:54;;;;;;;;;;;;;;;26.15;35.71;93092.91;5083230;28;7395;-41
2024/02/25 09:36:23;;;;;;;;;;;;;;;26.13;36.03;93087.19;5071322;28;7171;-43
2024/02/25 09:38:53;;;;;;;;;;;;;;;26.10;35.67;93078.00;5082002;28;7013;-41
2024/02/25 09:41:36;;;;;;;;;;;;;;;26.16;35.64;93084.06;5075780;28;6981;-42
2024/02/25 09:44:20;;;;;;;;;;;;;;;26.16;36.45;93084.06;5073678;28;9153;-42
2024/02/25 09:47:00;;;;;;;;;;;;;;;26.14;35.71;93081.13;5080012;28;7316;-41
2024/02/25 09:49:35;;;;;;;;;;;;;;;26.17;35.84;93080.03;5089304;28;9150;-42
2024/02/25 09:52:19;;;;;;;;;;;;;;;26.20;36.32;93072.72;5069297;28;9459;-41
2024/02/25 09:54:47;;;;;;;;;;;;;;;26.22;35.73;93075.66;5073152;28;7220;-42
2024/02/25 09:57:16;;;;;;;;;;;;;;;26.23;35.98;93079.88;5073743;28;8037;-42
2024/02/25 09:59:44;;;;;;;;;;;;;;;26.24;36.67;93069.59;5063405;28;9196;-42
2024/02/25 10:02:21;;;;;;;;;;;;;;;26.24;36.44;93073.09;5084568;28;7062;-42
2024/02/25 10:04:47;;;;;;;;;;;;;;;26.24;36.43;93075.84;5077275;28;8522;-41
2024/02/25 10:07:14;;;;;;;;;;;;;;;26.23;36.89;93065.38;5079529;28;8653;-41
2024/02/25 10:09:44;;;;;;;;;;;;;;;26.26;36.66;93064.25;5054398;28;8300;-42
2024/02/25 10:12:42;;;;;;;;;;;;;;;26.25;36.36;93058.03;5060530;28;9110;-40
2024/02/25 10:15:11;;;;;;;;;;;;;;;26.22;35.99;93041.84;5013146;28;7267;-41
2024/02/25 10:17:42;;;;;;;;;;;;;;;26.24;36.54;93045.53;5020457;28;8264;-41
2024/02/25 10:20:11;;;;;;;;;;;;;;;26.27;36.63;93046.47;5014990;28;8685;-42
2024/02/25 10:22:39;;;;;;;;;;;;;;;26.28;36.38;93051.41;5024788;28;7250;-44
2024/02/25 10:25:08;;;;;;;;;;;;;;;26.31;36.16;93055.84;5013614;28;7116;-42
2024/02/25 10:27:37;;;;;;;;;;;;;;;26.32;36.05;93049.03;5024972;28;9146;-40
2024/02/25 10:30:18;;;;;;;;;;;;;;;26.37;35.88;93039.84;5009005;28;8744;-40
2024/02/25 10:33:12;;;;;;;;;;;;;;;26.39;36.33;93039.31;5005357;28;7180;-41
2024/02/25 10:35:53;;;;;;;;;;;;;;;26.37;35.91;93031.59;5018206;28;7320;-41
2024/02/25 10:38:31;;;;;;;;;;;;;;;26.38;36.41;93032.34;5008362;28;6994;-41
2024/02/25 10:40:59;;;;;;;;;;;;;;;26.40;36.14;93024.25;5004845;28;7355;-41
2024/02/25 10:43:26;;;;;;;;;;;;;;;26.42;36.18;93021.69;5003619;28;7337;-37
2024/02/25 10:46:02;;;;;;;;;;;;;;;26.43;36.17;93023.13;5000279;28;7303;-37
2024/02/25 10:49:02;;;;;;;;;;;;;;;26.43;36.47;93023.88;5004663;28;7743;-37
2024/02/25 10:51:40;;;;;;;;;;;;;;;26.44;36.00;93024.63;4967961;28;7304;-37
2024/02/25 10:54:11;;;;;;;;;;;;;;;26.38;35.88;93008.25;5011230;28;7288;-37
2024/02/25 10:56:41;;;;;;;;;;;;;;;26.43;36.78;93006.59;5009315;28;8671;-36
2024/02/25 10:59:12;;;;;;;;;;;;;;;26.43;36.64;93017.63;5011272;28;7871;-36
2024/02/25 11:01:43;;;;;;;;;;;;;;;26.39;35.96;93011.75;5003239;28;7109;-36
2024/02/25 11:04:10;;;;;;;;;;;;;;;26.38;36.56;93008.25;4997681;28;7262;-37
2024/02/25 11:06:39;;;;;;;;;;;;;;;26.41;36.03;92995.38;5001511;28;7043;-36
2024/02/25 11:09:18;;;;;;;;;;;;;;;26.42;36.39;92996.88;5014608;28;7035;-36
2024/02/25 11:11:45;;;;;;;;;;;;;;;26.43;36.02;92993.56;4996416;28;7049;-36
2024/02/25 11:14:35;;;;;;;;;;;;;;;26.44;36.63;92991.53;5014805;28;9079;-36
2024/02/25 11:17:32;;;;;;;;;;;;;;;26.45;36.39;92993.00;5014444;28;7347;-36
2024/02/25 11:20:14;;;;;;;;;;;;;;;26.45;36.57;92981.97;4918444;29;7010;-36
2024/02/25 11:22:46;;;;;;;;;;;;;;;26.45;36.41;92984.72;4936852;29;7089;-36
2024/02/25 11:25:30;;;;;;;;;;;;;;;26.42;37.34;92974.81;4946719;28;7681;-36
2024/02/25 11:28:20;;;;;;;;;;;;;;;26.41;38.00;92968.56;4996969;28;7892;-37
2024/02/25 11:31:03;;;;;;;;;;;;;;;26.44;37.63;92966.72;4998347;28;6867;-36
2024/02/25 11:33:52;;;;;;;;;;;;;;;26.43;37.67;92962.47;5014712;28;9009;-36
2024/02/25 11:36:27;;;;;;;;;;;;;;;26.45;38.32;92962.66;4992755;28;7024;-36
2024/02/25 11:39:08;;;;;;;;;;;;;;;26.45;38.06;92948.88;4997129;28;7201;-36
2024/02/25 11:41:35;;;;;;;;;;;;;;;26.44;38.76;92950.19;4997756;28;8776;-36
2024/02/25 11:44:10;;;;;;;;;;;;;;;26.44;38.69;92947.41;4997049;28;7318;-36
2024/02/25 11:46:36;;;;;;;;;;;;;;;26.42;39.04;92950.75;4986429;28;7257;-36
2024/02/25 11:49:04;;;;;;;;;;;;;;;26.45;39.08;92948.88;5001776;28;7241;-36
2024/02/25 11:51:34;;;;;;;;;;;;;;;26.46;38.35;92944.84;5004946;28;7299;-36
2024/02/25 11:54:19;;;;;;;;;;;;;;;26.50;38.50;92943.19;4997605;28;9961;-58
2024/02/25 11:56:46;;;;;;;;;;;;;;;26.48;39.12;92931.25;5031529;28;7292;-58
2024/02/25 11:59:12;;;;;;;;;;;;;;;26.51;38.82;92935.66;5072086;28;7068;-58
2024/02/25 12:01:45;;;;;;;;;;;;;;;26.52;38.88;92935.09;5065580;28;7032;-58
2024/02/25 12:04:17;;;;;;;;;;;;;;;26.54;38.99;92924.25;5066506;28;9419;-58
2024/02/25 12:06:45;;;;;;;;;;;;;;;26.53;38.84;92913.78;5064667;28;7042;-58
2024/02/25 12:09:28;;;;;;;;;;;;;;;26.52;38.87;92915.81;5081132;28;7284;-57
2024/02/25 12:11:54;;;;;;;;;;;;;;;26.57;38.84;92914.91;5058938;28;9178;-57
2024/02/25 12:14:20;;;;;;;;;;;;;;;26.59;38.84;92914.34;5065624;28;7270;-56
2024/02/25 12:16:51;;;;;;;;;;;;;;;26.56;38.84;92904.41;5065364;28;7965;-58
2024/02/25 12:19:19;;;;;;;;;;;;;;;26.57;38.84;92911.41;5072857;28;7024;-58
2024/02/25 12:22:04;;;;;;;;;;;;;;;26.57;38.58;92903.88;5064987;28;8725;-58
2024/02/25 12:24:49;;;;;;;;;;;;;;;26.59;38.52;92892.28;5056610;28;9049;-58
2024/02/25 12:27:45;;;;;;;;;;;;;;;26.61;38.78;92890.44;5068397;28;9093;-58
2024/02/25 12:30:20;;;;;;;;;;;;;;;26.62;38.74;92885.66;5029575;28;9482;-58
2024/02/25 12:32:52;;;;;;;;;;;;;;;26.61;37.84;92879.41;5048157;28;7724;-53
2024/02/25 12:35:20;;;;;;;;;;;;;;;26.63;37.79;92879.59;5026214;28;9143;-58
2024/02/25 12:37:46;;;;;;;;;;;;;;;26.66;37.77;92869.47;5036085;28;7246;-57
2024/02/25 12:40:16;;;;;;;;;;;;;;;26.68;38.22;92866.91;5026352;28;7184;-58
2024/02/25 12:42:48;;;;;;;;;;;;;;;26.67;38.01;92857.88;5051961;28;7291;-58
2024/02/25 12:45:15;;;;;;;;;;;;;;;26.71;38.10;92858.22;5031647;28;7030;-57
2024/02/25 12:47:51;;;;;;;;;;;;;;;26.72;38.29;92847.94;5043929;28;7703;-58
2024/02/25 12:50:28;;;;;;;;;;;;;;;26.75;38.01;92850.34;5045603;28;9538;-58
2024/02/25 12:52:53;;;;;;;;;;;;;;;26.78;38.06;92849.25;5041555;28;9042;-58
2024/02/25 12:55:20;;;;;;;;;;;;;;;26.79;38.10;92844.47;5028345;28;7030;-58
2024/02/25 12:57:46;;;;;;;;;;;;;;;26.83;37.95;92840.03;5040819;28;7263;-58
2024/02/25 13:00:13;;;;;;;;;;;;;;;26.85;38.22;92834.69;5028402;28;9105;-57
2024/02/25 13:02:40;;;;;;;;;;;;;;;26.86;38.05;92827.88;5034442;28;9867;-57
2024/02/25 13:05:17;;;;;;;;;;;;;;;26.87;38.01;92829.38;5034697;28;8970;-51
2024/02/25 13:07:46;;;;;;;;;;;;;;;26.89;38.21;92817.75;5068781;28;7811;-52
2024/02/25 13:10:13;;;;;;;;;;;;;;;26.90;38.26;92814.44;5070485;28;7010;-52
2024/02/25 13:12:45;;;;;;;;;;;;;;;26.95;37.50;92818.28;5062751;28;7033;-50
2024/02/25 13:15:12;;;;;;;;;;;;;;;26.96;38.45;92811.50;5069575;28;7057;-53
2024/02/25 13:17:38;;;;;;;;;;;;;;;26.98;38.26;92805.41;5068491;28;9145;-51
2024/02/25 13:20:10;;;;;;;;;;;;;;;27.00;37.57;92798.03;5083763;28;7634;-53
2024/02/25 13:22:38;;;;;;;;;;;;;;;27.03;37.97;92807.97;5070531;28;7143;-52
2024/02/25 13:25:04;;;;;;;;;;;;;;;27.03;38.18;92791.41;5071046;28;8835;-53
2024/02/25 13:27:43;;;;;;;;;;;;;;;27.07;37.90;92789.00;5070559;28;8715;-53